Chicora, Pennsylvania
Current Conditions -  °F | °C
As of 2:55 AM on Wednesday 22 Oct 2014 (Local Time) from KBTP Reporting Station
Overcast Overcast  
Wind Chill: 44°   Ceiling: 1300
Heat Index: 46°   Visibility: 10mi
Dew Point: 43°   Wind: 6mph
Humidity: 87%   Direction: 340°NNW
Pressure: 30.05"   Gusts: NA
Location:  40.95°N, 79.74°W
Report Text: KBTP 220655Z AUTO 34005KT 10SM OVC013 08/06 A3005 RMK AO1
Loading
Personal Weather Stations






























Interactive Weather Map New forecast layout! Learn more

10-Day Weather Forecast

Advertisements
Track Severe Weather on mobile